sensor_id;sensor_type;location;lat;lon;timestamp;P1;durP1;ratioP1;P2;durP2;ratioP2
7795;SDS011;3942;51.518;6.912;2023-01-23T00:03:47;40.42;;;19.63;;
7795;SDS011;3942;51.518;6.912;2023-01-23T00:08:50;31.85;;;15.52;;
7795;SDS011;3942;51.518;6.912;2023-01-23T00:13:53;38.30;;;17.23;;
7795;SDS011;3942;51.518;6.912;2023-01-23T00:18:56;41.65;;;20.15;;
7795;SDS011;3942;51.518;6.912;2023-01-23T00:23:58;31.35;;;16.17;;
7795;SDS011;3942;51.518;6.912;2023-01-23T00:29:03;37.10;;;18.30;;
7795;SDS011;3942;51.518;6.912;2023-01-23T00:34:06;37.33;;;17.90;;
7795;SDS011;3942;51.518;6.912;2023-01-23T00:39:13;30.48;;;14.75;;
7795;SDS011;3942;51.518;6.912;2023-01-23T00:44:18;36.40;;;16.80;;
7795;SDS011;3942;51.518;6.912;2023-01-23T00:49:19;31.27;;;16.20;;
7795;SDS011;3942;51.518;6.912;2023-01-23T00:54:22;31.52;;;13.77;;
7795;SDS011;3942;51.518;6.912;2023-01-23T00:59:26;38.22;;;18.10;;
7795;SDS011;3942;51.518;6.912;2023-01-23T01:04:28;34.45;;;18.08;;
7795;SDS011;3942;51.518;6.912;2023-01-23T01:09:30;37.00;;;17.70;;
7795;SDS011;3942;51.518;6.912;2023-01-23T01:14:34;35.10;;;16.70;;
7795;SDS011;3942;51.518;6.912;2023-01-23T01:19:36;23.33;;;13.48;;
7795;SDS011;3942;51.518;6.912;2023-01-23T01:24:39;30.02;;;15.13;;
7795;SDS011;3942;51.518;6.912;2023-01-23T01:29:43;29.80;;;14.30;;
7795;SDS011;3942;51.518;6.912;2023-01-23T01:34:45;27.08;;;13.38;;
7795;SDS011;3942;51.518;6.912;2023-01-23T01:39:47;34.92;;;18.50;;
7795;SDS011;3942;51.518;6.912;2023-01-23T01:44:52;34.00;;;17.35;;
7795;SDS011;3942;51.518;6.912;2023-01-23T01:49:56;35.33;;;16.20;;
7795;SDS011;3942;51.518;6.912;2023-01-23T01:55:00;40.97;;;18.67;;
7795;SDS011;3942;51.518;6.912;2023-01-23T02:00:06;37.80;;;16.60;;
7795;SDS011;3942;51.518;6.912;2023-01-23T02:05:09;30.65;;;15.20;;
7795;SDS011;3942;51.518;6.912;2023-01-23T02:10:14;36.05;;;15.52;;
7795;SDS011;3942;51.518;6.912;2023-01-23T02:15:18;30.42;;;15.73;;
7795;SDS011;3942;51.518;6.912;2023-01-23T02:20:22;33.90;;;17.27;;
7795;SDS011;3942;51.518;6.912;2023-01-23T02:25:25;34.17;;;15.60;;
7795;SDS011;3942;51.518;6.912;2023-01-23T02:30:32;32.65;;;16.40;;
7795;SDS011;3942;51.518;6.912;2023-01-23T02:35:34;21.45;;;11.68;;
7795;SDS011;3942;51.518;6.912;2023-01-23T02:40:37;32.88;;;15.55;;
7795;SDS011;3942;51.518;6.912;2023-01-23T02:45:41;32.63;;;17.63;;
7795;SDS011;3942;51.518;6.912;2023-01-23T02:50:44;34.13;;;18.48;;
7795;SDS011;3942;51.518;6.912;2023-01-23T02:55:46;33.35;;;15.80;;
7795;SDS011;3942;51.518;6.912;2023-01-23T03:00:49;35.28;;;16.75;;
7795;SDS011;3942;51.518;6.912;2023-01-23T03:05:52;42.92;;;17.90;;
7795;SDS011;3942;51.518;6.912;2023-01-23T03:10:54;36.83;;;18.40;;
7795;SDS011;3942;51.518;6.912;2023-01-23T03:15:57;36.85;;;17.42;;
7795;SDS011;3942;51.518;6.912;2023-01-23T03:21:00;35.90;;;18.25;;
7795;SDS011;3942;51.518;6.912;2023-01-23T03:26:02;36.13;;;17.58;;
7795;SDS011;3942;51.518;6.912;2023-01-23T03:31:06;25.63;;;11.98;;
7795;SDS011;3942;51.518;6.912;2023-01-23T03:36:08;36.78;;;18.05;;
7795;SDS011;3942;51.518;6.912;2023-01-23T03:41:10;28.33;;;14.93;;
7795;SDS011;3942;51.518;6.912;2023-01-23T03:46:28;26.98;;;13.13;;
7795;SDS011;3942;51.518;6.912;2023-01-23T03:51:31;32.38;;;16.13;;
7795;SDS011;3942;51.518;6.912;2023-01-23T03:56:32;27.35;;;14.23;;
7795;SDS011;3942;51.518;6.912;2023-01-23T04:01:36;34.55;;;16.45;;
7795;SDS011;3942;51.518;6.912;2023-01-23T04:06:38;35.20;;;17.73;;
7795;SDS011;3942;51.518;6.912;2023-01-23T04:11:40;30.08;;;15.35;;
7795;SDS011;3942;51.518;6.912;2023-01-23T04:16:43;37.10;;;19.65;;
7795;SDS011;3942;51.518;6.912;2023-01-23T04:21:45;32.25;;;15.65;;
7795;SDS011;3942;51.518;6.912;2023-01-23T04:26:48;33.45;;;16.08;;
7795;SDS011;3942;51.518;6.912;2023-01-23T04:31:51;35.40;;;17.77;;
7795;SDS011;3942;51.518;6.912;2023-01-23T04:36:53;30.70;;;15.88;;
7795;SDS011;3942;51.518;6.912;2023-01-23T04:41:55;35.70;;;17.15;;
7795;SDS011;3942;51.518;6.912;2023-01-23T04:46:58;39.83;;;18.88;;
7795;SDS011;3942;51.518;6.912;2023-01-23T04:52:00;33.30;;;16.63;;
7795;SDS011;3942;51.518;6.912;2023-01-23T04:57:02;34.85;;;17.20;;
7795;SDS011;3942;51.518;6.912;2023-01-23T05:02:06;33.15;;;17.67;;
7795;SDS011;3942;51.518;6.912;2023-01-23T05:07:08;35.50;;;18.25;;
7795;SDS011;3942;51.518;6.912;2023-01-23T05:12:11;39.80;;;18.90;;
7795;SDS011;3942;51.518;6.912;2023-01-23T05:17:14;40.15;;;18.73;;
7795;SDS011;3942;51.518;6.912;2023-01-23T05:22:16;37.22;;;17.48;;
7795;SDS011;3942;51.518;6.912;2023-01-23T05:27:18;37.92;;;18.33;;
7795;SDS011;3942;51.518;6.912;2023-01-23T05:32:22;37.97;;;18.98;;
7795;SDS011;3942;51.518;6.912;2023-01-23T05:37:24;41.85;;;18.50;;
7795;SDS011;3942;51.518;6.912;2023-01-23T05:42:26;43.67;;;20.70;;
7795;SDS011;3942;51.518;6.912;2023-01-23T05:47:29;43.90;;;19.25;;
7795;SDS011;3942;51.518;6.912;2023-01-23T05:52:32;40.97;;;19.95;;
7795;SDS011;3942;51.518;6.912;2023-01-23T05:57:34;40.63;;;19.05;;
7795;SDS011;3942;51.518;6.912;2023-01-23T06:02:37;32.25;;;14.65;;
7795;SDS011;3942;51.518;6.912;2023-01-23T06:07:40;40.30;;;19.23;;
7795;SDS011;3942;51.518;6.912;2023-01-23T06:12:42;37.47;;;19.27;;
7795;SDS011;3942;51.518;6.912;2023-01-23T06:17:45;53.63;;;22.95;;
7795;SDS011;3942;51.518;6.912;2023-01-23T06:22:47;32.60;;;14.65;;
7795;SDS011;3942;51.518;6.912;2023-01-23T06:27:49;38.15;;;17.95;;
7795;SDS011;3942;51.518;6.912;2023-01-23T06:32:52;45.17;;;18.50;;
7795;SDS011;3942;51.518;6.912;2023-01-23T06:37:54;37.65;;;18.48;;
7795;SDS011;3942;51.518;6.912;2023-01-23T06:42:56;38.28;;;17.42;;
7795;SDS011;3942;51.518;6.912;2023-01-23T06:48:00;38.33;;;19.02;;
7795;SDS011;3942;51.518;6.912;2023-01-23T06:53:02;36.38;;;18.00;;
7795;SDS011;3942;51.518;6.912;2023-01-23T06:58:04;39.55;;;17.13;;
7795;SDS011;3942;51.518;6.912;2023-01-23T07:03:08;30.00;;;15.70;;
7795;SDS011;3942;51.518;6.912;2023-01-23T07:08:11;39.15;;;18.40;;
7795;SDS011;3942;51.518;6.912;2023-01-23T07:13:13;28.45;;;14.13;;
7795;SDS011;3942;51.518;6.912;2023-01-23T07:18:16;31.00;;;15.95;;
7795;SDS011;3942;51.518;6.912;2023-01-23T07:23:18;26.73;;;14.15;;
7795;SDS011;3942;51.518;6.912;2023-01-23T07:28:20;38.72;;;18.23;;
7795;SDS011;3942;51.518;6.912;2023-01-23T07:33:23;36.90;;;19.02;;
7795;SDS011;3942;51.518;6.912;2023-01-23T07:38:25;23.42;;;11.55;;
7795;SDS011;3942;51.518;6.912;2023-01-23T07:43:28;23.25;;;11.75;;
7795;SDS011;3942;51.518;6.912;2023-01-23T07:48:31;31.40;;;14.90;;
7795;SDS011;3942;51.518;6.912;2023-01-23T07:53:33;33.00;;;15.70;;
7795;SDS011;3942;51.518;6.912;2023-01-23T07:58:35;31.05;;;14.63;;
7795;SDS011;3942;51.518;6.912;2023-01-23T08:03:39;32.90;;;14.85;;
7795;SDS011;3942;51.518;6.912;2023-01-23T08:08:41;36.72;;;16.85;;
7795;SDS011;3942;51.518;6.912;2023-01-23T08:13:46;32.05;;;14.48;;
7795;SDS011;3942;51.518;6.912;2023-01-23T08:18:50;27.30;;;13.15;;
7795;SDS011;3942;51.518;6.912;2023-01-23T08:23:52;29.83;;;14.63;;
7795;SDS011;3942;51.518;6.912;2023-01-23T08:28:55;30.98;;;14.30;;
7795;SDS011;3942;51.518;6.912;2023-01-23T08:33:58;32.13;;;15.60;;
7795;SDS011;3942;51.518;6.912;2023-01-23T08:38:59;33.58;;;16.02;;
7795;SDS011;3942;51.518;6.912;2023-01-23T08:44:02;33.55;;;14.48;;
7795;SDS011;3942;51.518;6.912;2023-01-23T08:49:05;37.25;;;16.90;;
7795;SDS011;3942;51.518;6.912;2023-01-23T08:54:07;27.77;;;13.40;;
7795;SDS011;3942;51.518;6.912;2023-01-23T08:59:09;36.78;;;17.90;;
7795;SDS011;3942;51.518;6.912;2023-01-23T09:04:13;36.60;;;18.25;;
7795;SDS011;3942;51.518;6.912;2023-01-23T09:09:16;37.65;;;17.10;;
7795;SDS011;3942;51.518;6.912;2023-01-23T09:14:18;43.17;;;20.58;;
7795;SDS011;3942;51.518;6.912;2023-01-23T09:19:22;35.20;;;17.38;;
7795;SDS011;3942;51.518;6.912;2023-01-23T09:24:25;31.00;;;15.05;;
7795;SDS011;3942;51.518;6.912;2023-01-23T09:29:27;32.97;;;17.23;;
7795;SDS011;3942;51.518;6.912;2023-01-23T09:34:30;39.05;;;19.23;;
7795;SDS011;3942;51.518;6.912;2023-01-23T09:39:33;31.30;;;14.60;;
7795;SDS011;3942;51.518;6.912;2023-01-23T09:44:35;38.70;;;18.15;;
7795;SDS011;3942;51.518;6.912;2023-01-23T09:49:41;36.75;;;17.83;;
7795;SDS011;3942;51.518;6.912;2023-01-23T09:54:46;33.17;;;16.55;;
7795;SDS011;3942;51.518;6.912;2023-01-23T09:59:49;32.95;;;15.90;;
7795;SDS011;3942;51.518;6.912;2023-01-23T10:04:53;21.67;;;12.18;;
7795;SDS011;3942;51.518;6.912;2023-01-23T10:10:00;26.75;;;12.50;;
7795;SDS011;3942;51.518;6.912;2023-01-23T10:20:37;23.70;;;12.77;;
7795;SDS011;3942;51.518;6.912;2023-01-23T10:25:45;21.73;;;11.63;;
7795;SDS011;3942;51.518;6.912;2023-01-23T10:30:49;19.40;;;7.43;;
7795;SDS011;3942;51.518;6.912;2023-01-23T10:35:55;21.08;;;10.88;;
7795;SDS011;3942;51.518;6.912;2023-01-23T10:40:59;22.42;;;11.35;;
7795;SDS011;3942;51.518;6.912;2023-01-23T10:46:14;20.50;;;11.05;;
7795;SDS011;3942;51.518;6.912;2023-01-23T10:51:25;17.88;;;11.00;;
7795;SDS011;3942;51.518;6.912;2023-01-23T10:56:28;19.17;;;9.80;;
7795;SDS011;3942;51.518;6.912;2023-01-23T11:01:32;20.60;;;10.60;;
7795;SDS011;3942;51.518;6.912;2023-01-23T11:06:36;26.30;;;11.90;;
7795;SDS011;3942;51.518;6.912;2023-01-23T11:11:38;18.75;;;10.27;;
7795;SDS011;3942;51.518;6.912;2023-01-23T11:16:40;20.88;;;11.13;;
7795;SDS011;3942;51.518;6.912;2023-01-23T11:21:51;20.80;;;11.45;;
7795;SDS011;3942;51.518;6.912;2023-01-23T11:26:57;18.45;;;10.68;;
7795;SDS011;3942;51.518;6.912;2023-01-23T11:32:01;19.20;;;10.82;;
7795;SDS011;3942;51.518;6.912;2023-01-23T11:37:09;14.70;;;7.68;;
7795;SDS011;3942;51.518;6.912;2023-01-23T11:42:13;17.58;;;8.98;;
7795;SDS011;3942;51.518;6.912;2023-01-23T11:47:24;16.77;;;9.38;;
7795;SDS011;3942;51.518;6.912;2023-01-23T11:52:34;19.80;;;9.93;;
7795;SDS011;3942;51.518;6.912;2023-01-23T11:57:45;16.80;;;9.57;;
7795;SDS011;3942;51.518;6.912;2023-01-23T12:08:27;17.75;;;10.13;;
7795;SDS011;3942;51.518;6.912;2023-01-23T12:13:38;16.15;;;9.00;;
7795;SDS011;3942;51.518;6.912;2023-01-23T12:18:43;20.92;;;10.35;;
7795;SDS011;3942;51.518;6.912;2023-01-23T12:23:56;20.67;;;12.32;;
7795;SDS011;3942;51.518;6.912;2023-01-23T12:29:15;24.65;;;12.32;;
7795;SDS011;3942;51.518;6.912;2023-01-23T12:34:28;20.88;;;11.98;;
7795;SDS011;3942;51.518;6.912;2023-01-23T12:39:38;25.55;;;14.48;;
7795;SDS011;3942;51.518;6.912;2023-01-23T12:44:47;25.85;;;14.57;;
7795;SDS011;3942;51.518;6.912;2023-01-23T12:49:59;23.52;;;13.20;;
7795;SDS011;3942;51.518;6.912;2023-01-23T12:55:05;23.42;;;14.07;;
7795;SDS011;3942;51.518;6.912;2023-01-23T13:00:08;24.73;;;13.27;;
7795;SDS011;3942;51.518;6.912;2023-01-23T13:05:20;23.08;;;14.27;;
7795;SDS011;3942;51.518;6.912;2023-01-23T13:10:38;26.90;;;14.18;;
7795;SDS011;3942;51.518;6.912;2023-01-23T13:16:01;19.05;;;10.65;;
7795;SDS011;3942;51.518;6.912;2023-01-23T13:21:03;25.73;;;13.57;;
7795;SDS011;3942;51.518;6.912;2023-01-23T13:26:25;23.85;;;11.93;;
7795;SDS011;3942;51.518;6.912;2023-01-23T13:31:32;23.92;;;13.45;;
7795;SDS011;3942;51.518;6.912;2023-01-23T13:36:36;24.08;;;12.63;;
7795;SDS011;3942;51.518;6.912;2023-01-23T13:41:40;21.35;;;12.45;;
7795;SDS011;3942;51.518;6.912;2023-01-23T13:46:45;21.73;;;12.00;;
7795;SDS011;3942;51.518;6.912;2023-01-23T13:51:50;21.38;;;12.40;;
7795;SDS011;3942;51.518;6.912;2023-01-23T13:56:54;24.50;;;13.05;;
7795;SDS011;3942;51.518;6.912;2023-01-23T14:02:01;26.17;;;14.48;;
7795;SDS011;3942;51.518;6.912;2023-01-23T14:07:27;23.95;;;12.93;;
7795;SDS011;3942;51.518;6.912;2023-01-23T14:12:45;26.55;;;13.48;;
7795;SDS011;3942;51.518;6.912;2023-01-23T14:17:47;44.10;;;18.50;;
7795;SDS011;3942;51.518;6.912;2023-01-23T14:22:49;18.77;;;10.38;;
7795;SDS011;3942;51.518;6.912;2023-01-23T14:28:02;23.88;;;13.48;;
7795;SDS011;3942;51.518;6.912;2023-01-23T14:33:09;25.23;;;15.00;;
7795;SDS011;3942;51.518;6.912;2023-01-23T14:38:13;26.23;;;14.60;;
7795;SDS011;3942;51.518;6.912;2023-01-23T14:43:22;27.05;;;13.70;;
7795;SDS011;3942;51.518;6.912;2023-01-23T14:48:25;26.42;;;13.48;;
7795;SDS011;3942;51.518;6.912;2023-01-23T14:53:28;19.25;;;10.93;;
7795;SDS011;3942;51.518;6.912;2023-01-23T14:58:31;29.48;;;15.77;;
7795;SDS011;3942;51.518;6.912;2023-01-23T15:03:34;23.02;;;12.73;;
7795;SDS011;3942;51.518;6.912;2023-01-23T15:08:39;23.17;;;14.15;;
7795;SDS011;3942;51.518;6.912;2023-01-23T15:13:47;28.63;;;14.48;;
7795;SDS011;3942;51.518;6.912;2023-01-23T15:18:55;29.20;;;16.02;;
7795;SDS011;3942;51.518;6.912;2023-01-23T15:23:59;31.63;;;16.23;;
7795;SDS011;3942;51.518;6.912;2023-01-23T15:29:16;29.27;;;15.43;;
7795;SDS011;3942;51.518;6.912;2023-01-23T15:34:19;26.33;;;16.08;;
7795;SDS011;3942;51.518;6.912;2023-01-23T15:39:23;32.47;;;17.30;;
7795;SDS011;3942;51.518;6.912;2023-01-23T15:44:28;30.67;;;17.30;;
7795;SDS011;3942;51.518;6.912;2023-01-23T15:49:31;26.77;;;14.90;;
7795;SDS011;3942;51.518;6.912;2023-01-23T15:54:34;26.20;;;12.75;;
7795;SDS011;3942;51.518;6.912;2023-01-23T15:59:39;18.48;;;10.82;;
7795;SDS011;3942;51.518;6.912;2023-01-23T16:04:41;25.77;;;14.30;;
7795;SDS011;3942;51.518;6.912;2023-01-23T16:09:44;26.13;;;13.63;;
7795;SDS011;3942;51.518;6.912;2023-01-23T16:14:49;20.65;;;10.55;;
7795;SDS011;3942;51.518;6.912;2023-01-23T16:19:50;22.40;;;12.07;;
7795;SDS011;3942;51.518;6.912;2023-01-23T16:24:53;21.73;;;13.05;;
7795;SDS011;3942;51.518;6.912;2023-01-23T16:29:57;29.52;;;14.50;;
7795;SDS011;3942;51.518;6.912;2023-01-23T16:34:58;26.30;;;13.50;;
7795;SDS011;3942;51.518;6.912;2023-01-23T16:40:00;26.63;;;14.95;;
7795;SDS011;3942;51.518;6.912;2023-01-23T16:45:11;22.25;;;12.77;;
7795;SDS011;3942;51.518;6.912;2023-01-23T16:50:15;21.85;;;13.18;;
7795;SDS011;3942;51.518;6.912;2023-01-23T16:55:18;22.27;;;12.77;;
7795;SDS011;3942;51.518;6.912;2023-01-23T17:00:23;21.02;;;12.25;;
7795;SDS011;3942;51.518;6.912;2023-01-23T17:05:25;23.27;;;13.75;;
7795;SDS011;3942;51.518;6.912;2023-01-23T17:10:27;23.42;;;13.57;;
7795;SDS011;3942;51.518;6.912;2023-01-23T17:15:30;17.85;;;10.80;;
7795;SDS011;3942;51.518;6.912;2023-01-23T17:20:32;23.02;;;12.90;;
7795;SDS011;3942;51.518;6.912;2023-01-23T17:25:34;17.05;;;9.43;;
7795;SDS011;3942;51.518;6.912;2023-01-23T17:30:40;18.88;;;11.60;;
7795;SDS011;3942;51.518;6.912;2023-01-23T17:35:44;19.00;;;9.80;;
7795;SDS011;3942;51.518;6.912;2023-01-23T17:40:47;23.95;;;13.98;;
7795;SDS011;3942;51.518;6.912;2023-01-23T17:45:50;21.52;;;12.20;;
7795;SDS011;3942;51.518;6.912;2023-01-23T17:50:52;22.92;;;12.70;;
7795;SDS011;3942;51.518;6.912;2023-01-23T17:55:54;19.58;;;11.23;;
7795;SDS011;3942;51.518;6.912;2023-01-23T18:00:58;22.75;;;12.32;;
7795;SDS011;3942;51.518;6.912;2023-01-23T18:06:00;24.52;;;13.27;;
7795;SDS011;3942;51.518;6.912;2023-01-23T18:11:02;18.63;;;10.98;;
7795;SDS011;3942;51.518;6.912;2023-01-23T18:16:07;13.50;;;8.20;;
7795;SDS011;3942;51.518;6.912;2023-01-23T18:21:14;18.58;;;10.48;;
7795;SDS011;3942;51.518;6.912;2023-01-23T18:26:23;13.10;;;6.18;;
7795;SDS011;3942;51.518;6.912;2023-01-23T18:31:30;19.00;;;10.75;;
7795;SDS011;3942;51.518;6.912;2023-01-23T18:36:39;16.67;;;9.52;;
7795;SDS011;3942;51.518;6.912;2023-01-23T18:41:54;13.90;;;9.32;;
7795;SDS011;3942;51.518;6.912;2023-01-23T18:47:06;19.20;;;8.57;;
7795;SDS011;3942;51.518;6.912;2023-01-23T18:57:20;18.38;;;11.70;;
7795;SDS011;3942;51.518;6.912;2023-01-23T19:02:39;19.00;;;11.18;;
7795;SDS011;3942;51.518;6.912;2023-01-23T19:07:46;24.80;;;13.35;;
7795;SDS011;3942;51.518;6.912;2023-01-23T19:12:50;17.48;;;10.05;;
7795;SDS011;3942;51.518;6.912;2023-01-23T19:18:05;15.02;;;9.95;;
7795;SDS011;3942;51.518;6.912;2023-01-23T19:23:19;16.10;;;10.55;;
7795;SDS011;3942;51.518;6.912;2023-01-23T19:28:30;18.77;;;10.57;;
7795;SDS011;3942;51.518;6.912;2023-01-23T19:33:34;14.60;;;9.88;;
7795;SDS011;3942;51.518;6.912;2023-01-23T19:38:36;12.25;;;8.48;;
7795;SDS011;3942;51.518;6.912;2023-01-23T19:43:38;13.18;;;8.60;;
7795;SDS011;3942;51.518;6.912;2023-01-23T19:48:41;14.95;;;9.05;;
7795;SDS011;3942;51.518;6.912;2023-01-23T19:53:43;14.32;;;9.25;;
7795;SDS011;3942;51.518;6.912;2023-01-23T19:58:46;18.38;;;10.93;;
7795;SDS011;3942;51.518;6.912;2023-01-23T20:03:49;17.85;;;10.43;;
7795;SDS011;3942;51.518;6.912;2023-01-23T20:08:52;19.58;;;10.55;;
7795;SDS011;3942;51.518;6.912;2023-01-23T20:13:54;13.90;;;8.20;;
7795;SDS011;3942;51.518;6.912;2023-01-23T20:18:57;28.70;;;15.50;;
7795;SDS011;3942;51.518;6.912;2023-01-23T20:23:59;21.13;;;12.48;;
7795;SDS011;3942;51.518;6.912;2023-01-23T20:29:01;20.70;;;11.75;;
7795;SDS011;3942;51.518;6.912;2023-01-23T20:34:05;25.08;;;14.35;;
7795;SDS011;3942;51.518;6.912;2023-01-23T20:39:08;24.73;;;11.43;;
7795;SDS011;3942;51.518;6.912;2023-01-23T20:44:11;26.50;;;13.43;;
7795;SDS011;3942;51.518;6.912;2023-01-23T20:49:14;23.23;;;13.50;;
7795;SDS011;3942;51.518;6.912;2023-01-23T20:54:16;25.48;;;13.45;;
7795;SDS011;3942;51.518;6.912;2023-01-23T20:59:18;27.13;;;14.52;;
7795;SDS011;3942;51.518;6.912;2023-01-23T21:04:24;22.33;;;13.00;;
7795;SDS011;3942;51.518;6.912;2023-01-23T21:09:27;21.40;;;11.82;;
7795;SDS011;3942;51.518;6.912;2023-01-23T21:14:29;24.08;;;12.43;;
7795;SDS011;3942;51.518;6.912;2023-01-23T21:19:32;25.92;;;11.93;;
7795;SDS011;3942;51.518;6.912;2023-01-23T21:24:34;22.40;;;12.10;;
7795;SDS011;3942;51.518;6.912;2023-01-23T21:29:36;28.33;;;14.15;;
7795;SDS011;3942;51.518;6.912;2023-01-23T21:34:40;19.38;;;10.23;;
7795;SDS011;3942;51.518;6.912;2023-01-23T21:39:41;19.60;;;10.55;;
7795;SDS011;3942;51.518;6.912;2023-01-23T21:44:43;20.42;;;10.48;;
7795;SDS011;3942;51.518;6.912;2023-01-23T21:49:47;19.63;;;10.32;;
7795;SDS011;3942;51.518;6.912;2023-01-23T21:54:51;25.13;;;14.02;;
7795;SDS011;3942;51.518;6.912;2023-01-23T21:59:53;24.30;;;12.52;;
7795;SDS011;3942;51.518;6.912;2023-01-23T22:05:13;24.75;;;14.27;;
7795;SDS011;3942;51.518;6.912;2023-01-23T22:10:18;25.15;;;13.07;;
7795;SDS011;3942;51.518;6.912;2023-01-23T22:15:20;16.98;;;9.55;;
7795;SDS011;3942;51.518;6.912;2023-01-23T22:20:23;24.48;;;13.85;;
7795;SDS011;3942;51.518;6.912;2023-01-23T22:25:26;25.63;;;14.10;;
7795;SDS011;3942;51.518;6.912;2023-01-23T22:30:28;24.15;;;13.68;;
7795;SDS011;3942;51.518;6.912;2023-01-23T22:35:35;21.95;;;12.73;;
7795;SDS011;3942;51.518;6.912;2023-01-23T22:40:38;27.23;;;14.65;;
7795;SDS011;3942;51.518;6.912;2023-01-23T22:45:40;26.33;;;12.27;;
7795;SDS011;3942;51.518;6.912;2023-01-23T22:50:43;26.38;;;15.68;;
7795;SDS011;3942;51.518;6.912;2023-01-23T22:55:44;26.65;;;13.80;;
7795;SDS011;3942;51.518;6.912;2023-01-23T23:00:47;27.02;;;14.35;;
7795;SDS011;3942;51.518;6.912;2023-01-23T23:06:02;21.70;;;10.25;;
7795;SDS011;3942;51.518;6.912;2023-01-23T23:11:06;27.52;;;14.98;;
7795;SDS011;3942;51.518;6.912;2023-01-23T23:16:10;22.30;;;12.98;;
7795;SDS011;3942;51.518;6.912;2023-01-23T23:21:16;28.48;;;15.75;;
7795;SDS011;3942;51.518;6.912;2023-01-23T23:26:19;20.88;;;11.25;;
7795;SDS011;3942;51.518;6.912;2023-01-23T23:31:21;25.13;;;13.48;;
7795;SDS011;3942;51.518;6.912;2023-01-23T23:36:25;22.73;;;13.73;;
7795;SDS011;3942;51.518;6.912;2023-01-23T23:41:27;20.00;;;10.90;;
7795;SDS011;3942;51.518;6.912;2023-01-23T23:46:29;21.33;;;12.02;;
7795;SDS011;3942;51.518;6.912;2023-01-23T23:51:33;26.52;;;14.43;;
7795;SDS011;3942;51.518;6.912;2023-01-23T23:56:35;30.08;;;14.60;;
